Time;durP1;ratioP1;P1;durP2;ratioP2;P2;SDS_P1;SDS_P2;PMS_P1;PMS_P2;Temp;Humidity;BMP_temperature;BMP_pressure;BME280_temperature;BME280_humidity;BME280_pressure;Samples;Min_cycle;Max_cycle;Signal;HPM_P1;HPM_P2
2022/06/13 00:00:26;;;;;;;1.50;1.30;;;15.60;99.90;;;;;;476291;250;28822;-72
2022/06/13 00:02:27;;;;;;;1.50;1.40;;;15.50;99.90;;;;;;476298;250;30161;-71
2022/06/13 00:04:28;;;;;;;1.50;1.40;;;15.40;99.90;;;;;;476307;250;29250;-71
2022/06/13 00:06:29;;;;;;;1.60;1.50;;;15.40;99.90;;;;;;476264;250;29327;-73
2022/06/13 00:08:31;;;;;;;1.70;1.60;;;15.40;99.90;;;;;;476308;250;28785;-71
2022/06/13 00:10:32;;;;;;;2.30;1.47;;;15.40;99.90;;;;;;476268;250;28831;-71
2022/06/13 00:12:33;;;;;;;1.60;1.50;;;15.40;99.90;;;;;;476310;250;28879;-71
2022/06/13 00:14:34;;;;;;;1.50;1.40;;;15.40;99.90;;;;;;476290;250;28780;-72
2022/06/13 00:16:36;;;;;;;1.50;1.40;;;15.20;99.90;;;;;;476298;250;28816;-72
2022/06/13 00:18:37;;;;;;;1.90;1.80;;;15.20;99.90;;;;;;476293;250;28789;-71
2022/06/13 00:20:38;;;;;;;1.57;1.50;;;15.20;99.90;;;;;;476294;250;28921;-73
2022/06/13 00:22:39;;;;;;;3.53;1.50;;;15.10;99.90;;;;;;476272;250;28856;-74
2022/06/13 00:24:41;;;;;;;1.40;1.30;;;15.10;99.90;;;;;;476301;250;28918;-70
2022/06/13 00:26:42;;;;;;;1.73;1.63;;;15.00;99.90;;;;;;476185;250;29380;-72
2022/06/13 00:28:43;;;;;;;1.40;1.30;;;14.70;99.90;;;;;;476255;250;29292;-71
2022/06/13 00:30:44;;;;;;;1.70;1.47;;;14.50;99.90;;;;;;476283;250;29434;-72
2022/06/13 00:32:46;;;;;;;2.10;1.70;;;14.40;99.90;;;;;;476262;250;29401;-72
2022/06/13 00:34:48;;;;;;;1.60;1.47;;;14.40;99.90;;;;;;476301;250;28772;-72
2022/06/13 00:36:48;;;;;;;1.60;1.50;;;14.30;99.90;;;;;;476269;250;28904;-71
2022/06/13 00:38:49;;;;;;;1.57;1.47;;;14.30;99.90;;;;;;476292;250;28778;-71
2022/06/13 00:40:51;;;;;;;2.20;1.47;;;14.40;99.90;;;;;;476308;250;28812;-71
2022/06/13 00:42:52;;;;;;;1.23;1.23;;;14.40;99.90;;;;;;476333;250;28834;-74
2022/06/13 00:44:53;;;;;;;1.63;1.53;;;14.50;99.90;;;;;;476307;250;28777;-71
2022/06/13 00:46:54;;;;;;;1.60;1.50;;;14.60;99.90;;;;;;476288;250;28828;-72
2022/06/13 00:48:56;;;;;;;1.47;1.37;;;14.70;99.90;;;;;;476312;250;29281;-71
2022/06/13 00:50:57;;;;;;;4.70;1.40;;;14.80;99.90;;;;;;476320;250;29257;-71
2022/06/13 00:52:58;;;;;;;1.77;1.67;;;14.80;99.90;;;;;;476291;250;29319;-73
2022/06/13 00:54:59;;;;;;;2.50;1.70;;;14.90;99.90;;;;;;476282;250;29336;-71
2022/06/13 00:57:01;;;;;;;1.70;1.60;;;15.00;99.90;;;;;;476290;250;28839;-71
2022/06/13 00:59:02;;;;;;;1.60;1.50;;;14.90;99.90;;;;;;476283;250;28816;-71
2022/06/13 01:01:03;;;;;;;3.67;2.00;;;14.80;99.90;;;;;;476310;250;28794;-71
2022/06/13 01:03:04;;;;;;;1.70;1.60;;;14.70;99.90;;;;;;476285;250;28829;-73
2022/06/13 01:05:06;;;;;;;1.50;1.40;;;14.70;99.90;;;;;;476274;250;28886;-71
2022/06/13 01:07:07;;;;;;;2.60;1.70;;;14.70;99.90;;;;;;476249;250;28827;-72
2022/06/13 01:09:08;;;;;;;2.10;1.90;;;14.70;99.90;;;;;;476254;250;28788;-71
2022/06/13 01:11:18;;;;;;;1.70;1.60;;;14.70;99.90;;;;;;476294;250;28856;-71
2022/06/13 01:13:20;;;;;;;1.53;1.43;;;14.80;99.90;;;;;;476306;250;28781;-71
2022/06/13 01:15:21;;;;;;;3.07;2.10;;;14.80;99.90;;;;;;476300;250;28814;-71
2022/06/13 01:17:22;;;;;;;2.73;1.73;;;14.70;99.90;;;;;;476282;250;28937;-71
2022/06/13 01:19:23;;;;;;;2.17;1.83;;;14.70;99.90;;;;;;476244;250;28812;-71
2022/06/13 01:21:25;;;;;;;1.40;1.30;;;14.80;99.90;;;;;;476313;250;29310;-74
2022/06/13 01:23:26;;;;;;;2.80;2.10;;;14.80;99.90;;;;;;476306;250;29237;-70
2022/06/13 01:25:27;;;;;;;4.60;2.00;;;14.70;99.90;;;;;;476275;250;29315;-71
2022/06/13 01:27:28;;;;;;;4.53;1.97;;;14.70;99.90;;;;;;476270;250;28926;-71
2022/06/13 01:29:30;;;;;;;3.40;2.07;;;14.70;99.90;;;;;;476279;250;28867;-71
2022/06/13 01:31:31;;;;;;;2.10;1.90;;;14.60;99.90;;;;;;476287;250;28810;-72
2022/06/13 01:33:32;;;;;;;5.17;2.30;;;14.50;99.90;;;;;;476269;250;28812;-71
2022/06/13 01:35:33;;;;;;;1.90;1.80;;;14.50;99.90;;;;;;476272;250;28908;-71
2022/06/13 01:37:35;;;;;;;2.00;1.90;;;14.60;99.90;;;;;;476281;250;28784;-71
2022/06/13 01:39:36;;;;;;;3.00;2.03;;;14.50;99.90;;;;;;476261;250;28558;-71
2022/06/13 01:41:37;;;;;;;2.67;1.90;;;14.40;99.90;;;;;;476289;250;28908;-73
2022/06/13 01:43:40;;;;;;;4.20;2.30;;;14.40;99.90;;;;;;476282;250;28883;-71
2022/06/13 01:45:40;;;;;;;1.80;1.70;;;14.40;99.90;;;;;;476162;250;28825;-71
2022/06/13 01:47:41;;;;;;;2.67;1.80;;;14.40;99.90;;;;;;476240;250;29248;-71
2022/06/13 01:49:42;;;;;;;1.80;1.70;;;14.40;99.90;;;;;;476274;250;29307;-71
2022/06/13 01:51:43;;;;;;;3.00;1.80;;;14.40;99.90;;;;;;476297;250;29320;-73
2022/06/13 01:53:45;;;;;;;2.03;1.80;;;14.40;99.90;;;;;;476265;250;28477;-71
2022/06/13 01:55:46;;;;;;;2.07;1.73;;;14.40;99.90;;;;;;476284;250;28890;-72
2022/06/13 01:57:47;;;;;;;1.70;1.60;;;14.40;99.90;;;;;;476267;250;28780;-71
2022/06/13 01:59:48;;;;;;;2.03;1.83;;;14.40;99.90;;;;;;476278;250;28823;-71
2022/06/13 02:01:50;;;;;;;2.20;2.00;;;14.30;99.90;;;;;;476282;250;28835;-72
2022/06/13 02:03:51;;;;;;;2.43;1.87;;;14.30;99.90;;;;;;476273;250;28484;-71
2022/06/13 02:05:52;;;;;;;1.80;1.70;;;14.20;99.90;;;;;;476274;250;28924;-71
2022/06/13 02:07:53;;;;;;;3.07;1.90;;;14.30;99.90;;;;;;476230;250;28787;-71
2022/06/13 02:09:55;;;;;;;2.17;2.00;;;14.20;99.90;;;;;;476291;250;28831;-71
2022/06/13 02:11:56;;;;;;;2.53;1.70;;;14.20;99.90;;;;;;476275;250;29395;-73
2022/06/13 02:13:57;;;;;;;3.40;1.80;;;14.10;99.90;;;;;;476301;250;29323;-71
2022/06/13 02:15:58;;;;;;;4.00;1.93;;;14.10;99.90;;;;;;476301;250;29299;-73
2022/06/13 02:18:00;;;;;;;2.07;1.93;;;14.20;99.90;;;;;;476312;250;29246;-71
2022/06/13 02:20:01;;;;;;;3.43;1.63;;;14.20;99.90;;;;;;476278;250;28811;-71
2022/06/13 02:22:02;;;;;;;2.07;1.87;;;14.20;99.90;;;;;;476317;250;28847;-74
2022/06/13 02:24:04;;;;;;;2.70;1.90;;;14.20;99.90;;;;;;476317;250;28867;-71
2022/06/13 02:26:05;;;;;;;1.90;1.80;;;14.00;99.90;;;;;;476323;249;28955;-73
2022/06/13 02:28:06;;;;;;;1.87;1.73;;;13.80;99.90;;;;;;476327;250;28472;-71
2022/06/13 02:30:07;;;;;;;2.10;1.90;;;13.70;99.90;;;;;;476268;250;28823;-71
2022/06/13 02:32:08;;;;;;;1.70;1.60;;;13.70;99.90;;;;;;476301;250;28655;-72
2022/06/13 02:34:10;;;;;;;1.60;1.50;;;13.60;99.90;;;;;;476281;250;28783;-71
2022/06/13 02:36:11;;;;;;;1.67;1.57;;;13.50;99.90;;;;;;476290;250;28297;-71
2022/06/13 02:38:12;;;;;;;3.37;1.50;;;13.30;99.90;;;;;;476275;250;28880;-71
2022/06/13 02:40:15;;;;;;;1.60;1.50;;;13.20;99.90;;;;;;476280;250;28871;-71
2022/06/13 02:42:15;;;;;;;1.70;1.60;;;13.20;99.90;;;;;;476244;249;28983;-72
2022/06/13 02:44:16;;;;;;;1.70;1.60;;;13.00;99.90;;;;;;476316;250;28141;-70
2022/06/13 02:46:17;;;;;;;1.90;1.80;;;13.00;99.90;;;;;;476245;250;28491;-72
2022/06/13 02:48:18;;;;;;;1.63;1.53;;;13.00;99.90;;;;;;476267;250;28301;-71
2022/06/13 02:50:20;;;;;;;1.63;1.53;;;13.00;99.90;;;;;;476305;250;28166;-71
2022/06/13 02:52:21;;;;;;;1.50;1.50;;;13.00;99.90;;;;;;476311;250;28282;-74
2022/06/13 02:54:22;;;;;;;1.70;1.60;;;12.90;99.90;;;;;;476311;250;28911;-71
2022/06/13 02:56:23;;;;;;;1.70;1.60;;;12.90;99.90;;;;;;476257;250;28198;-71
2022/06/13 02:58:25;;;;;;;3.07;1.63;;;12.90;99.90;;;;;;476270;250;28221;-71
2022/06/13 03:00:26;;;;;;;1.97;1.73;;;12.90;99.90;;;;;;476281;250;28629;-71
2022/06/13 03:02:27;;;;;;;2.20;1.70;;;12.80;99.90;;;;;;476302;250;28767;-73
2022/06/13 03:04:28;;;;;;;1.67;1.57;;;12.80;99.90;;;;;;476299;250;28697;-71
2022/06/13 03:06:31;;;;;;;1.90;1.80;;;12.70;99.90;;;;;;476293;250;28623;-71
2022/06/13 03:08:32;;;;;;;1.87;1.73;;;12.70;99.90;;;;;;476157;250;28138;-71
2022/06/13 03:10:32;;;;;;;2.00;1.87;;;12.70;99.90;;;;;;476299;250;28265;-71
2022/06/13 03:12:33;;;;;;;1.73;1.63;;;12.60;99.90;;;;;;476327;250;28192;-74
2022/06/13 03:14:35;;;;;;;1.90;1.80;;;12.70;99.90;;;;;;476262;250;28305;-71
2022/06/13 03:16:37;;;;;;;1.93;1.80;;;;;;;;;;476286;250;28208;-71
2022/06/13 03:18:40;;;;;;;3.80;1.87;;;;;;;;;;468785;253;27816;-73
2022/06/13 03:20:42;;;;;;;2.40;1.70;;;12.30;99.90;;;;;;476286;250;26619;-70
2022/06/13 03:22:42;;;;;;;1.90;1.80;;;12.30;99.90;;;;;;476271;250;28189;-70
2022/06/13 03:24:43;;;;;;;2.47;1.60;;;12.30;99.90;;;;;;476301;250;28895;-71
2022/06/13 03:26:45;;;;;;;1.97;1.80;;;12.30;99.90;;;;;;476293;250;28792;-71
2022/06/13 03:28:46;;;;;;;3.07;2.00;;;12.40;99.90;;;;;;476221;250;28668;-73
2022/06/13 03:30:47;;;;;;;1.93;1.70;;;12.40;99.90;;;;;;476298;250;28594;-71
2022/06/13 03:33:39;;;;;;;1.80;1.67;;;12.40;99.90;;;;;;476298;250;28815;-71
2022/06/13 03:34:50;;;;;;;1.67;1.50;;;12.40;99.90;;;;;;474602;250;28338;-71
2022/06/13 03:36:51;;;;;;;1.90;1.80;;;12.40;99.90;;;;;;476273;250;28168;-71
2022/06/13 03:38:52;;;;;;;1.80;1.70;;;12.40;99.90;;;;;;476315;250;28193;-72
2022/06/13 03:40:53;;;;;;;1.63;1.53;;;12.30;99.90;;;;;;476179;250;28362;-71
2022/06/13 03:42:55;;;;;;;1.70;1.60;;;12.40;99.90;;;;;;476274;250;28220;-70
2022/06/13 03:44:56;;;;;;;1.60;1.50;;;12.30;99.90;;;;;;476298;250;28863;-71
2022/06/13 03:46:57;;;;;;;1.73;1.63;;;12.20;99.90;;;;;;476303;250;28234;-71
2022/06/13 03:48:58;;;;;;;2.07;1.97;;;12.20;99.90;;;;;;476306;250;28825;-71
2022/06/13 03:51:00;;;;;;;2.50;1.90;;;12.20;99.90;;;;;;476299;250;28951;-70
2022/06/13 03:53:01;;;;;;;4.10;2.00;;;12.10;99.90;;;;;;476240;250;28860;-71
2022/06/13 03:55:02;;;;;;;3.53;2.07;;;12.20;99.90;;;;;;476227;250;30771;-71
2022/06/13 03:57:03;;;;;;;2.90;1.80;;;12.20;99.90;;;;;;476262;250;28393;-71
2022/06/13 03:59:05;;;;;;;1.97;1.80;;;12.20;99.90;;;;;;476285;250;28425;-73
2022/06/13 04:01:07;;;;;;;2.63;1.80;;;12.20;99.90;;;;;;476281;250;28934;-71
2022/06/13 04:03:07;;;;;;;1.80;1.70;;;12.10;99.90;;;;;;476190;250;28043;-71
2022/06/13 04:05:10;;;;;;;1.70;1.60;;;;;;;;;;476214;250;28788;-71
2022/06/13 04:07:11;;;;;;;2.30;2.10;;;12.10;99.90;;;;;;468763;253;27336;-73
2022/06/13 04:09:12;;;;;;;1.60;1.50;;;12.20;99.90;;;;;;467798;254;28196;-70
2022/06/13 04:11:13;;;;;;;2.03;1.93;;;12.10;99.90;;;;;;476289;250;28601;-71
2022/06/13 04:13:15;;;;;;;1.70;1.60;;;12.00;99.90;;;;;;476285;250;28768;-71
2022/06/13 04:15:16;;;;;;;1.87;1.77;;;12.00;99.90;;;;;;476280;250;28172;-70
2022/06/13 04:17:18;;;;;;;1.70;1.60;;;12.10;99.90;;;;;;476307;250;28257;-73
2022/06/13 04:19:18;;;;;;;2.07;1.97;;;12.20;99.90;;;;;;476273;250;28225;-70
2022/06/13 04:21:20;;;;;;;2.27;2.10;;;12.20;99.90;;;;;;476279;250;28587;-71
2022/06/13 04:23:21;;;;;;;3.30;2.00;;;12.30;99.90;;;;;;476287;250;28284;-71
2022/06/13 04:25:22;;;;;;;2.00;1.90;;;12.30;99.90;;;;;;476273;250;28748;-71
2022/06/13 04:27:23;;;;;;;1.90;1.80;;;12.30;99.90;;;;;;476311;250;29139;-73
2022/06/13 04:29:25;;;;;;;1.77;1.67;;;12.40;99.90;;;;;;476295;250;28613;-71
2022/06/13 04:31:26;;;;;;;1.90;1.70;;;12.50;99.90;;;;;;476271;250;28740;-71
2022/06/13 04:33:27;;;;;;;1.70;1.60;;;12.50;99.90;;;;;;476300;250;28357;-71
2022/06/13 04:35:28;;;;;;;3.43;1.80;;;12.60;99.90;;;;;;476252;250;28338;-71
2022/06/13 04:37:30;;;;;;;2.50;1.80;;;12.60;99.90;;;;;;476303;250;28295;-73
2022/06/13 04:39:31;;;;;;;1.70;1.60;;;12.70;99.90;;;;;;476281;250;28126;-71
2022/06/13 04:41:32;;;;;;;3.57;2.00;;;12.80;99.90;;;;;;476275;250;28219;-71
2022/06/13 04:43:33;;;;;;;1.80;1.70;;;12.80;99.90;;;;;;476320;250;28786;-71
2022/06/13 04:45:35;;;;;;;1.90;1.80;;;12.80;99.90;;;;;;476278;250;28262;-71
2022/06/13 04:47:36;;;;;;;2.40;2.20;;;12.80;99.90;;;;;;476276;250;28289;-73
2022/06/13 04:49:37;;;;;;;1.97;1.87;;;12.90;99.90;;;;;;476253;250;28767;-70
2022/06/13 04:51:38;;;;;;;1.97;1.87;;;12.80;99.90;;;;;;476272;250;28926;-72
2022/06/13 04:53:40;;;;;;;2.30;2.10;;;12.80;99.90;;;;;;476295;250;28823;-71
2022/06/13 04:55:41;;;;;;;2.70;2.23;;;12.70;99.90;;;;;;476250;250;28875;-71
2022/06/13 04:57:42;;;;;;;2.03;1.90;;;12.70;99.90;;;;;;476310;250;28067;-73
2022/06/13 04:59:43;;;;;;;2.00;1.90;;;12.70;99.90;;;;;;476312;249;28241;-71
2022/06/13 05:01:46;;;;;;;2.00;1.90;;;;;;;;;;476299;250;28312;-71
2022/06/13 05:03:48;;;;;;;2.30;2.20;;;12.50;99.90;;;;;;468797;253;27159;-71
2022/06/13 05:05:48;;;;;;;2.20;2.03;;;12.60;99.90;;;;;;467825;254;28958;-74
2022/06/13 05:07:50;;;;;;;2.13;2.03;;;12.70;99.90;;;;;;476311;250;28804;-71
2022/06/13 05:09:51;;;;;;;2.33;2.23;;;12.70;99.90;;;;;;476299;250;28843;-71
2022/06/13 05:11:52;;;;;;;2.53;2.33;;;12.70;99.90;;;;;;476305;250;28231;-71
2022/06/13 05:13:53;;;;;;;2.30;2.20;;;12.60;99.90;;;;;;476291;250;28293;-71
2022/06/13 05:15:55;;;;;;;2.10;2.00;;;12.70;99.90;;;;;;476295;250;28279;-74
2022/06/13 05:17:56;;;;;;;2.23;2.13;;;12.80;99.90;;;;;;476332;250;28240;-71
2022/06/13 05:19:57;;;;;;;2.50;2.30;;;12.90;99.90;;;;;;476306;250;28375;-71
2022/06/13 05:21:58;;;;;;;2.10;2.00;;;13.00;99.90;;;;;;476265;250;28239;-71
2022/06/13 05:24:00;;;;;;;2.30;2.20;;;13.10;99.90;;;;;;476246;250;28349;-71
2022/06/13 05:26:01;;;;;;;2.33;2.13;;;13.20;99.90;;;;;;476279;250;28300;-73
2022/06/13 05:28:02;;;;;;;2.33;2.17;;;13.30;99.90;;;;;;476312;250;28828;-71
2022/06/13 05:30:03;;;;;;;1.90;1.80;;;13.40;99.90;;;;;;476298;250;28912;-71
2022/06/13 05:32:05;;;;;;;2.40;2.30;;;13.50;99.90;;;;;;476285;250;28961;-71
2022/06/13 05:34:06;;;;;;;2.30;2.10;;;13.50;99.90;;;;;;476264;250;28827;-71
2022/06/13 05:36:07;;;;;;;2.30;2.20;;;13.70;99.90;;;;;;476288;250;28468;-74
2022/06/13 05:38:08;;;;;;;2.40;2.30;;;13.80;99.90;;;;;;476305;250;28440;-71
2022/06/13 05:40:10;;;;;;;2.63;2.50;;;13.80;99.90;;;;;;476240;250;28839;-71
2022/06/13 05:42:12;;;;;;;2.40;2.20;;;13.80;99.90;;;;;;476252;250;28349;-72
2022/06/13 05:44:12;;;;;;;5.60;2.70;;;13.80;99.90;;;;;;476268;250;28604;-71
2022/06/13 05:46:13;;;;;;;3.43;2.73;;;13.90;99.90;;;;;;476303;249;28185;-73
2022/06/13 05:48:15;;;;;;;2.67;2.47;;;13.90;99.90;;;;;;476265;250;28280;-71
2022/06/13 05:50:16;;;;;;;3.30;2.37;;;14.00;99.90;;;;;;476289;250;28494;-72
2022/06/13 05:52:17;;;;;;;2.40;2.27;;;14.10;99.90;;;;;;476270;249;28479;-71
2022/06/13 05:54:18;;;;;;;2.97;2.23;;;14.20;99.90;;;;;;476285;249;28904;-71
2022/06/13 05:56:20;;;;;;;2.10;1.90;;;14.20;99.90;;;;;;476267;250;29072;-74
2022/06/13 05:58:21;;;;;;;2.77;2.40;;;14.30;99.90;;;;;;476310;250;28957;-71
2022/06/13 06:00:22;;;;;;;5.60;2.60;;;14.30;99.90;;;;;;476313;250;28820;-71
2022/06/13 06:02:23;;;;;;;3.40;2.40;;;14.30;99.90;;;;;;476272;250;28931;-70
2022/06/13 06:04:25;;;;;;;2.80;2.20;;;14.30;99.90;;;;;;476262;250;28984;-71
2022/06/13 06:06:26;;;;;;;3.33;2.60;;;14.40;99.90;;;;;;476300;250;28813;-73
2022/06/13 06:08:27;;;;;;;2.87;2.67;;;14.40;99.90;;;;;;476289;250;28793;-71
2022/06/13 06:10:28;;;;;;;5.23;2.73;;;14.40;99.90;;;;;;476274;250;28844;-72
2022/06/13 06:12:30;;;;;;;3.97;2.50;;;14.40;99.90;;;;;;476285;250;28886;-71
2022/06/13 06:14:31;;;;;;;3.77;2.70;;;14.50;99.90;;;;;;476295;250;28916;-71
2022/06/13 06:16:32;;;;;;;3.20;2.60;;;14.60;99.90;;;;;;476298;250;28825;-73
2022/06/13 06:18:33;;;;;;;4.47;2.40;;;14.60;99.90;;;;;;476284;250;29416;-71
2022/06/13 06:20:36;;;;;;;4.43;2.90;;;14.60;99.90;;;;;;476292;250;29305;-71
2022/06/13 06:22:36;;;;;;;2.73;2.43;;;14.60;99.90;;;;;;476212;250;29257;-71
2022/06/13 06:24:38;;;;;;;2.47;2.27;;;14.70;99.90;;;;;;476294;249;29370;-71
2022/06/13 06:26:38;;;;;;;2.90;2.40;;;14.80;99.90;;;;;;476284;249;28848;-73
2022/06/13 06:28:40;;;;;;;2.60;2.40;;;14.80;99.90;;;;;;476300;250;28913;-71
2022/06/13 06:30:41;;;;;;;2.73;2.50;;;14.80;99.90;;;;;;476287;250;28917;-72
2022/06/13 06:32:42;;;;;;;2.83;2.57;;;14.90;99.90;;;;;;476284;250;28852;-71
2022/06/13 06:34:43;;;;;;;2.77;2.30;;;14.90;99.90;;;;;;476285;250;28840;-71
2022/06/13 06:36:45;;;;;;;2.93;2.60;;;14.90;99.90;;;;;;476280;250;28916;-74
2022/06/13 06:38:47;;;;;;;2.43;2.23;;;15.00;99.90;;;;;;476324;250;28841;-71
2022/06/13 06:40:47;;;;;;;2.40;2.20;;;15.00;99.90;;;;;;476260;250;28958;-72
2022/06/13 06:42:48;;;;;;;7.40;2.40;;;15.00;99.90;;;;;;476291;250;29385;-71
2022/06/13 06:44:50;;;;;;;2.80;2.37;;;15.00;99.90;;;;;;476313;250;29308;-71
2022/06/13 06:46:51;;;;;;;2.63;2.40;;;15.10;99.90;;;;;;476327;250;29344;-74
2022/06/13 06:48:52;;;;;;;7.17;2.83;;;15.20;99.90;;;;;;476319;250;29405;-71
2022/06/13 06:50:53;;;;;;;5.37;2.50;;;15.30;99.90;;;;;;476287;250;28940;-71
2022/06/13 06:52:55;;;;;;;3.47;2.90;;;15.30;99.90;;;;;;476263;249;28786;-71
2022/06/13 06:59:53;;;;;;;3.33;2.40;;;15.40;99.90;;;;;;476307;250;29186;-73
2022/06/13 07:01:54;;;;;;;4.33;2.63;;;15.40;99.90;;;;;;476295;250;28871;-71
2022/06/13 07:03:56;;;;;;;4.87;2.20;;;15.40;99.90;;;;;;476294;250;28829;-72
2022/06/13 07:05:57;;;;;;;2.97;2.67;;;15.40;99.90;;;;;;476283;250;28786;-71
2022/06/13 07:07:58;;;;;;;3.27;2.30;;;15.50;99.90;;;;;;476294;250;28915;-71
2022/06/13 07:09:59;;;;;;;4.03;3.03;;;15.50;99.90;;;;;;476276;250;28896;-74
2022/06/13 07:12:01;;;;;;;3.37;2.27;;;15.60;99.90;;;;;;476292;250;28790;-71
2022/06/13 07:14:02;;;;;;;5.33;2.53;;;15.70;99.90;;;;;;476288;250;29363;-71
2022/06/13 07:16:03;;;;;;;2.83;2.40;;;15.70;99.90;;;;;;476206;250;29300;-71
2022/06/13 07:18:04;;;;;;;5.10;2.47;;;15.70;99.90;;;;;;476265;250;28821;-71
2022/06/13 07:20:06;;;;;;;5.03;2.60;;;15.70;99.90;;;;;;476313;250;28829;-73
2022/06/13 07:22:07;;;;;;;2.50;2.23;;;15.80;99.90;;;;;;476298;250;28870;-71
2022/06/13 07:24:08;;;;;;;4.30;2.17;;;15.80;99.90;;;;;;476276;250;28860;-72
2022/06/13 07:26:10;;;;;;;2.83;2.40;;;15.90;99.90;;;;;;476282;250;28960;-71
2022/06/13 07:28:11;;;;;;;6.00;2.67;;;15.80;99.90;;;;;;476244;250;28901;-71
2022/06/13 07:30:12;;;;;;;2.97;2.23;;;15.90;99.90;;;;;;476295;250;28913;-74
2022/06/13 07:32:13;;;;;;;2.47;2.10;;;16.00;99.90;;;;;;476290;250;29309;-72
2022/06/13 07:34:14;;;;;;;2.23;2.00;;;16.20;99.90;;;;;;476295;250;29429;-72
2022/06/13 07:36:16;;;;;;;5.50;2.70;;;16.30;99.90;;;;;;476260;250;29337;-71
2022/06/13 07:38:17;;;;;;;5.67;3.00;;;16.20;99.90;;;;;;476271;250;28828;-72
2022/06/13 07:40:18;;;;;;;2.30;2.10;;;16.30;99.90;;;;;;476303;250;28829;-74
2022/06/13 07:42:20;;;;;;;4.27;2.30;;;16.30;99.90;;;;;;476310;250;28780;-71
2022/06/13 07:44:21;;;;;;;3.00;2.70;;;16.20;99.90;;;;;;476310;250;28893;-72
2022/06/13 07:46:22;;;;;;;3.03;2.40;;;16.20;99.90;;;;;;476265;250;28869;-71
2022/06/13 07:48:23;;;;;;;3.80;2.50;;;16.20;99.90;;;;;;476298;250;28870;-71
2022/06/13 07:50:25;;;;;;;2.90;2.60;;;16.40;99.90;;;;;;476313;250;28979;-73
2022/06/13 07:52:26;;;;;;;3.73;2.53;;;16.40;99.90;;;;;;476290;250;28807;-71
2022/06/13 07:54:27;;;;;;;3.70;2.47;;;16.30;99.90;;;;;;476277;250;29296;-71
2022/06/13 07:56:28;;;;;;;2.80;2.30;;;16.30;99.90;;;;;;476299;250;29322;-71
2022/06/13 07:58:30;;;;;;;5.33;2.60;;;16.40;99.90;;;;;;476236;250;29296;-72
2022/06/13 08:00:31;;;;;;;3.77;2.40;;;16.40;99.90;;;;;;476252;250;28853;-73
2022/06/13 08:02:32;;;;;;;6.87;2.80;;;16.60;99.90;;;;;;476313;250;28813;-71
2022/06/13 08:04:33;;;;;;;7.63;2.73;;;16.80;99.90;;;;;;476305;250;28834;-71
2022/06/13 08:06:38;;;;;;;3.43;2.57;;;16.70;99.90;;;;;;476293;250;28789;-71
2022/06/13 08:08:36;;;;;;;3.23;2.57;;;16.60;99.90;;;;;;476053;250;28817;-71
2022/06/13 08:10:37;;;;;;;5.33;2.57;;;16.60;99.90;;;;;;476290;250;28860;-74
2022/06/13 08:12:38;;;;;;;6.13;2.80;;;16.80;99.90;;;;;;476312;250;28789;-72
2022/06/13 08:14:45;;;;;;;3.10;2.37;;;16.90;99.90;;;;;;476321;250;28830;-72
2022/06/13 08:16:41;;;;;;;4.63;2.20;;;17.00;99.90;;;;;;475862;250;29342;-71
2022/06/13 08:18:42;;;;;;;4.93;2.83;;;16.90;99.90;;;;;;476307;250;29286;-71
2022/06/13 08:20:43;;;;;;;5.97;2.50;;;16.90;99.90;;;;;;476321;250;29398;-74
2022/06/13 08:22:45;;;;;;;7.90;2.50;;;16.90;99.90;;;;;;476313;250;28786;-71
2022/06/13 08:24:46;;;;;;;2.50;1.80;;;17.00;99.90;;;;;;476321;250;28901;-72
2022/06/13 08:26:47;;;;;;;4.17;2.47;;;16.90;99.90;;;;;;476329;250;28888;-71
2022/06/13 08:28:48;;;;;;;4.73;2.20;;;16.90;99.90;;;;;;476288;250;28829;-72
2022/06/13 08:30:50;;;;;;;3.63;1.90;;;16.90;99.90;;;;;;476294;250;28835;-73
2022/06/13 08:32:51;;;;;;;2.43;2.00;;;17.00;99.90;;;;;;476315;249;28790;-71
2022/06/13 08:34:52;;;;;;;2.40;1.90;;;17.00;99.90;;;;;;476245;250;28842;-72
2022/06/13 08:36:53;;;;;;;2.23;2.03;;;17.10;99.90;;;;;;476279;250;28847;-71
2022/06/13 08:38:55;;;;;;;5.00;2.57;;;17.10;99.90;;;;;;476267;250;28831;-71
2022/06/13 08:40:56;;;;;;;2.43;2.00;;;17.20;99.90;;;;;;476315;250;29300;-73
2022/06/13 08:42:57;;;;;;;4.43;2.07;;;17.30;99.90;;;;;;476297;250;29251;-72
2022/06/13 08:44:59;;;;;;;3.77;2.07;;;17.40;99.90;;;;;;476280;250;29299;-72
2022/06/13 08:47:02;;;;;;;2.27;1.87;;;17.30;99.90;;;;;;476207;250;30131;-71
2022/06/13 08:49:01;;;;;;;4.10;2.20;;;17.30;99.90;;;;;;476107;250;28862;-71
2022/06/13 08:51:03;;;;;;;2.00;1.90;;;17.20;99.90;;;;;;476278;250;28830;-73
2022/06/13 08:53:03;;;;;;;2.67;2.00;;;17.20;99.90;;;;;;476278;250;28835;-71
2022/06/13 08:55:05;;;;;;;3.13;1.90;;;17.40;99.90;;;;;;476288;250;28892;-72
2022/06/13 08:57:06;;;;;;;2.50;2.13;;;17.50;99.90;;;;;;476282;250;28830;-72
2022/06/13 08:59:34;;;;;;;2.43;1.90;;;17.50;99.90;;;;;;476266;249;28898;-71
2022/06/13 09:01:08;;;;;;;5.67;2.00;;;17.50;99.90;;;;;;475089;250;29505;-74
2022/06/13 09:03:10;;;;;;;4.77;1.93;;;17.60;99.90;;;;;;476299;250;28782;-72
2022/06/13 09:05:11;;;;;;;1.73;1.60;;;17.80;99.90;;;;;;476276;250;29208;-72
2022/06/13 09:07:12;;;;;;;3.00;1.80;;;17.80;99.90;;;;;;476279;250;29245;-72
2022/06/13 09:09:13;;;;;;;2.10;1.90;;;17.70;99.90;;;;;;476306;250;29314;-72
2022/06/13 09:11:15;;;;;;;2.33;2.00;;;17.80;99.90;;;;;;476286;246;29375;-74
2022/06/13 09:13:16;;;;;;;2.73;1.90;;;17.70;99.90;;;;;;476280;250;28876;-72
2022/06/13 09:15:17;;;;;;;3.70;2.20;;;17.80;99.90;;;;;;476283;250;28889;-72
2022/06/13 09:17:18;;;;;;;2.20;1.90;;;17.90;99.90;;;;;;476274;250;28787;-71
2022/06/13 09:19:20;;;;;;;4.30;1.90;;;18.00;99.90;;;;;;476279;250;28815;-72
2022/06/13 09:21:21;;;;;;;2.33;2.00;;;17.90;99.90;;;;;;476277;250;28819;-72
2022/06/13 09:23:22;;;;;;;3.40;2.10;;;18.10;99.90;;;;;;476286;250;28843;-72
2022/06/13 09:25:23;;;;;;;1.83;1.73;;;18.10;99.90;;;;;;476280;250;28895;-72
2022/06/13 09:27:25;;;;;;;2.97;2.10;;;17.90;99.90;;;;;;476255;249;28777;-72
2022/06/13 09:29:26;;;;;;;2.87;2.27;;;17.90;99.90;;;;;;476265;250;28824;-72
2022/06/13 09:31:27;;;;;;;4.00;2.23;;;18.20;99.90;;;;;;476315;250;29366;-71
2022/06/13 09:33:28;;;;;;;3.77;2.00;;;18.20;99.90;;;;;;476289;250;29364;-71
2022/06/13 09:35:30;;;;;;;2.93;2.43;;;18.10;99.90;;;;;;476313;250;30074;-72
2022/06/13 09:37:31;;;;;;;5.83;2.37;;;18.20;99.90;;;;;;476301;250;28860;-71
2022/06/13 09:39:32;;;;;;;3.03;2.00;;;18.30;99.90;;;;;;476329;250;28813;-72
2022/06/13 09:41:33;;;;;;;2.20;1.97;;;18.30;99.90;;;;;;476298;250;28821;-71
2022/06/13 09:43:35;;;;;;;2.77;2.00;;;18.40;99.90;;;;;;476271;250;28791;-71
2022/06/13 09:45:36;;;;;;;3.77;2.20;;;18.20;99.90;;;;;;476287;250;28817;-73
2022/06/13 09:47:37;;;;;;;2.43;2.13;;;18.40;99.90;;;;;;476287;250;28874;-72
2022/06/13 09:49:38;;;;;;;1.97;1.80;;;18.40;99.90;;;;;;476274;249;28863;-71
2022/06/13 09:51:40;;;;;;;1.93;1.83;;;18.50;99.90;;;;;;476277;250;28817;-73
2022/06/13 09:53:41;;;;;;;3.37;2.17;;;18.60;99.90;;;;;;476311;250;28791;-71
2022/06/13 09:55:44;;;;;;;3.70;2.03;;;18.70;99.90;;;;;;476302;250;29433;-73
2022/06/13 09:57:43;;;;;;;2.47;1.90;;;18.70;99.90;;;;;;476176;250;29291;-72
2022/06/13 09:59:45;;;;;;;3.33;1.87;;;18.60;99.90;;;;;;476240;250;29402;-72
2022/06/13 10:01:46;;;;;;;3.80;2.10;;;18.60;99.90;;;;;;476264;250;29483;-71
2022/06/13 10:03:47;;;;;;;3.33;2.37;;;18.60;99.90;;;;;;476282;250;28886;-72
2022/06/13 10:05:48;;;;;;;2.60;2.10;;;18.70;99.90;;;;;;476267;250;28905;-72
2022/06/13 10:07:50;;;;;;;1.80;1.70;;;18.70;99.90;;;;;;476293;250;28775;-71
2022/06/13 10:09:51;;;;;;;8.80;2.43;;;18.60;99.90;;;;;;476280;250;28910;-72
2022/06/13 10:11:52;;;;;;;3.90;2.20;;;18.70;99.90;;;;;;476254;250;28833;-72
2022/06/13 10:13:53;;;;;;;4.90;2.40;;;18.80;99.90;;;;;;476302;250;28841;-72
2022/06/13 10:15:55;;;;;;;5.83;2.20;;;19.20;99.90;;;;;;476270;250;28917;-73
2022/06/13 10:17:56;;;;;;;2.00;1.90;;;18.90;99.90;;;;;;476279;250;28828;-71
2022/06/13 10:19:57;;;;;;;3.53;1.83;;;18.90;99.90;;;;;;476277;250;29386;-72
2022/06/13 10:21:58;;;;;;;2.90;2.10;;;19.00;99.90;;;;;;476361;250;30456;-72
2022/06/13 10:24:00;;;;;;;2.63;1.80;;;19.00;99.90;;;;;;476285;250;29332;-72
2022/06/13 10:26:01;;;;;;;2.07;1.80;;;19.20;99.90;;;;;;476276;250;29388;-72
2022/06/13 10:28:02;;;;;;;7.87;2.03;;;19.40;99.90;;;;;;476288;250;28769;-72
2022/06/13 10:30:05;;;;;;;3.07;2.30;;;19.40;99.90;;;;;;476292;250;28980;-72
2022/06/13 10:32:05;;;;;;;3.30;2.10;;;19.30;99.90;;;;;;476184;250;28821;-72
2022/06/13 10:34:06;;;;;;;3.80;2.00;;;19.10;99.90;;;;;;476287;250;28858;-72
2022/06/13 10:36:07;;;;;;;2.30;1.80;;;19.20;99.90;;;;;;476295;250;28837;-74